Time;durP1;ratioP1;P1;durP2;ratioP2;P2;SDS_P1;SDS_P2;PMS_P1;PMS_P2;Temp;Humidity;BMP_temperature;BMP_pressure;BME280_temperature;BME280_humidity;BME280_pressure;Samples;Min_cycle;Max_cycle;Signal;HPM_P1;HPM_P2
2022/06/21 00:02:06;;;;;;;6.03;2.90;;;24.40;60.00;;;;;;5039278;28;20199;-80
2022/06/21 00:04:34;;;;;;;4.83;2.40;;;24.30;60.10;;;;;;5054173;28;20202;-79
2022/06/21 00:07:05;;;;;;;4.87;3.03;;;24.30;60.50;;;;;;5032777;28;20210;-79
2022/06/21 00:09:35;;;;;;;6.10;2.90;;;24.30;60.70;;;;;;5041395;28;20213;-79
2022/06/21 00:12:02;;;;;;;2.77;2.50;;;24.20;60.90;;;;;;5046288;28;20213;-80
2022/06/21 00:14:29;;;;;;;10.03;3.37;;;24.20;61.20;;;;;;5048139;28;20218;-79
2022/06/21 00:16:56;;;;;;;4.67;3.00;;;24.20;61.20;;;;;;5049795;28;20201;-79
2022/06/21 00:19:25;;;;;;;9.67;3.60;;;24.20;61.20;;;;;;5055678;28;20245;-80
2022/06/21 00:21:52;;;;;;;5.97;3.07;;;24.20;61.80;;;;;;5057660;28;20614;-80
2022/06/21 00:24:19;;;;;;;6.07;2.97;;;24.20;61.90;;;;;;5048491;28;20206;-79
2022/06/21 00:26:47;;;;;;;6.43;2.63;;;24.20;61.20;;;;;;5048519;28;20222;-79
2022/06/21 00:29:15;;;;;;;4.23;2.97;;;24.20;60.10;;;;;;5038297;28;20237;-79
2022/06/21 00:31:49;;;;;;;7.43;2.77;;;24.20;59.50;;;;;;5038213;28;20276;-80
2022/06/21 00:34:20;;;;;;;3.23;2.73;;;24.20;59.20;;;;;;5055328;28;20206;-79
2022/06/21 00:36:49;;;;;;;5.00;2.70;;;24.20;59.60;;;;;;5033506;28;20205;-80
2022/06/21 00:39:18;;;;;;;6.20;3.10;;;24.20;60.10;;;;;;5048285;28;20218;-79
2022/06/21 00:41:54;;;;;;;6.90;3.00;;;24.20;60.10;;;;;;5055830;28;20249;-79
2022/06/21 00:44:35;;;;;;;6.63;2.70;;;24.20;59.90;;;;;;5024681;28;20244;-79
2022/06/21 00:47:25;;;;;;;7.60;2.77;;;24.20;59.80;;;;;;5052620;28;20210;-79
2022/06/21 00:50:26;;;;;;;6.13;2.57;;;24.30;59.70;;;;;;5022037;28;20203;-79
2022/06/21 00:53:16;;;;;;;5.10;3.00;;;24.30;59.60;;;;;;5050577;28;20228;-79
2022/06/21 00:56:03;;;;;;;6.60;3.10;;;24.30;59.40;;;;;;5062632;28;20657;-80
2022/06/21 00:58:31;;;;;;;4.07;2.53;;;24.30;59.40;;;;;;5054240;28;20195;-79
2022/06/21 01:01:28;;;;;;;10.00;2.93;;;24.30;58.90;;;;;;5054270;28;20226;-79
2022/06/21 01:04:10;;;;;;;5.20;2.50;;;24.30;58.90;;;;;;5055320;28;20612;-79
2022/06/21 01:06:47;;;;;;;6.80;3.27;;;24.20;58.40;;;;;;5054377;28;20206;-79
2022/06/21 01:09:21;;;;;;;5.97;2.40;;;24.30;58.40;;;;;;5053013;28;20388;-79
2022/06/21 01:11:54;;;;;;;5.67;2.50;;;24.20;57.80;;;;;;5047745;28;20198;-79
2022/06/21 01:14:24;;;;;;;7.33;2.93;;;24.30;57.20;;;;;;5053989;28;20293;-79
2022/06/21 01:16:51;;;;;;;6.77;2.53;;;24.30;57.80;;;;;;5055209;28;20198;-79
2022/06/21 01:19:43;;;;;;;6.97;2.57;;;24.20;59.00;;;;;;5036150;28;20230;-79
2022/06/21 01:22:26;;;;;;;9.10;2.57;;;24.20;60.30;;;;;;5037433;28;20557;-79
2022/06/21 01:25:15;;;;;;;4.80;2.33;;;24.10;59.70;;;;;;5053064;28;20199;-79
2022/06/21 01:27:43;;;;;;;8.47;3.10;;;24.10;59.40;;;;;;5052500;28;20200;-79
2022/06/21 01:30:10;;;;;;;7.63;3.57;;;24.00;59.20;;;;;;5053536;28;20332;-79
2022/06/21 01:32:38;;;;;;;11.33;2.73;;;24.00;59.20;;;;;;5052808;28;20206;-79
2022/06/21 01:35:16;;;;;;;4.60;2.53;;;24.00;59.00;;;;;;5053840;28;20207;-79
2022/06/21 01:37:43;;;;;;;6.47;2.70;;;24.00;59.30;;;;;;5035634;28;20656;-78
2022/06/21 01:40:25;;;;;;;4.47;2.57;;;24.00;59.60;;;;;;5051651;28;20277;-80
2022/06/21 01:43:02;;;;;;;10.97;2.90;;;23.90;60.00;;;;;;5049030;28;20291;-79
2022/06/21 01:45:38;;;;;;;7.83;2.57;;;23.90;60.00;;;;;;5052462;28;20698;-79
2022/06/21 01:48:14;;;;;;;3.83;2.60;;;23.90;59.90;;;;;;5051688;28;20202;-79
2022/06/21 01:50:44;;;;;;;10.83;3.20;;;23.80;60.30;;;;;;5046512;28;20246;-79
2022/06/21 01:53:14;;;;;;;5.97;3.20;;;23.70;61.20;;;;;;5040549;28;20206;-80
2022/06/21 01:55:50;;;;;;;3.50;2.43;;;23.60;61.50;;;;;;5058771;28;20202;-80
2022/06/21 01:58:25;;;;;;;2.77;2.57;;;23.60;61.70;;;;;;5066138;28;20211;-80
2022/06/21 02:00:59;;;;;;;4.07;2.87;;;23.50;61.30;;;;;;5051486;28;20232;-80
2022/06/21 02:03:31;;;;;;;7.30;2.93;;;23.40;61.90;;;;;;5041507;28;20221;-80
2022/06/21 02:06:04;;;;;;;4.30;3.00;;;23.40;62.40;;;;;;5059014;28;20209;-80
2022/06/21 02:08:54;;;;;;;13.87;3.27;;;23.30;62.50;;;;;;5056018;28;20521;-80
2022/06/21 02:11:39;;;;;;;6.63;3.10;;;23.30;62.40;;;;;;5056404;28;20207;-79
2022/06/21 02:14:29;;;;;;;5.57;3.13;;;23.30;62.90;;;;;;5055747;28;20222;-80
2022/06/21 02:17:12;;;;;;;9.03;3.77;;;23.20;63.30;;;;;;5050421;28;20256;-80
2022/06/21 02:19:41;;;;;;;10.67;3.33;;;23.10;63.80;;;;;;5074683;28;20225;-79
2022/06/21 02:22:17;;;;;;;4.30;3.50;;;23.10;64.20;;;;;;5058017;28;20551;-79
2022/06/21 02:24:45;;;;;;;7.87;3.40;;;23.10;64.70;;;;;;5045414;28;20206;-80
2022/06/21 02:27:15;;;;;;;7.60;3.13;;;23.10;64.80;;;;;;5057113;28;20265;-81
2022/06/21 02:29:46;;;;;;;10.50;3.80;;;23.00;65.30;;;;;;5041651;28;20217;-79
2022/06/21 02:32:28;;;;;;;5.47;3.23;;;23.00;65.40;;;;;;5058353;28;20211;-79
2022/06/21 02:35:04;;;;;;;7.10;3.57;;;23.00;65.60;;;;;;5039409;28;20641;-79
2022/06/21 02:37:33;;;;;;;8.97;3.87;;;23.00;65.60;;;;;;5053219;28;20214;-79
2022/06/21 02:40:04;;;;;;;3.23;2.90;;;22.90;65.80;;;;;;5056516;28;20666;-79
2022/06/21 02:42:35;;;;;;;6.97;3.53;;;22.80;66.30;;;;;;5033305;28;20246;-79
2022/06/21 02:45:18;;;;;;;8.77;3.37;;;22.80;66.50;;;;;;5071424;28;20242;-79
2022/06/21 02:47:49;;;;;;;4.07;3.30;;;22.80;66.40;;;;;;5059728;28;20210;-79
2022/06/21 02:50:56;;;;;;;5.73;3.50;;;22.70;66.30;;;;;;5044569;28;20210;-79
2022/06/21 02:53:37;;;;;;;8.87;3.40;;;22.70;66.70;;;;;;5037849;28;20221;-79
2022/06/21 02:56:13;;;;;;;4.37;3.53;;;22.60;66.50;;;;;;5062183;28;20209;-79
2022/06/21 02:58:45;;;;;;;6.63;3.30;;;22.60;66.50;;;;;;5075655;28;20205;-79
2022/06/21 03:01:23;;;;;;;4.60;3.40;;;22.60;66.70;;;;;;5043239;28;20249;-79
2022/06/21 03:03:51;;;;;;;6.60;3.83;;;22.60;67.00;;;;;;5059776;28;20201;-79
2022/06/21 03:06:21;;;;;;;10.07;4.20;;;22.60;66.90;;;;;;5060129;28;20201;-79
2022/06/21 03:09:12;;;;;;;5.27;3.57;;;22.60;66.60;;;;;;5059541;28;20202;-79
2022/06/21 03:11:46;;;;;;;8.10;3.47;;;22.60;66.80;;;;;;5069232;28;20308;-79
2022/06/21 03:14:16;;;;;;;8.30;3.40;;;22.60;66.90;;;;;;5065354;28;20225;-79
2022/06/21 03:16:46;;;;;;;9.23;3.97;;;22.60;66.80;;;;;;5055698;28;20224;-79
2022/06/21 03:19:25;;;;;;;5.80;3.67;;;22.50;66.80;;;;;;5059020;28;20306;-79
2022/06/21 03:21:54;;;;;;;13.80;3.60;;;22.50;67.30;;;;;;5067852;28;20224;-79
2022/06/21 03:24:25;;;;;;;7.30;3.77;;;22.50;67.50;;;;;;5058232;28;20206;-79
2022/06/21 03:27:10;;;;;;;6.60;3.07;;;22.40;67.70;;;;;;5073451;28;20263;-79
2022/06/21 03:29:37;;;;;;;5.50;3.20;;;22.40;68.10;;;;;;5064756;28;20194;-79
2022/06/21 03:32:05;;;;;;;6.73;3.83;;;22.30;68.40;;;;;;5069918;28;20205;-79
2022/06/21 03:34:33;;;;;;;5.83;3.47;;;22.30;68.70;;;;;;5054675;28;20760;-79
2022/06/21 03:37:01;;;;;;;6.03;3.50;;;22.30;69.00;;;;;;5066431;28;20543;-79
2022/06/21 03:42:19;;;;;;;4.40;3.10;;;22.30;68.80;;;;;;5056755;28;20205;-79
2022/06/21 03:44:54;;;;;;;5.80;3.50;;;22.30;68.80;;;;;;5067282;28;20265;-79
2022/06/21 03:47:37;;;;;;;8.97;4.37;;;22.30;68.80;;;;;;5076473;28;20288;-79
2022/06/21 03:50:12;;;;;;;5.50;3.47;;;22.20;68.90;;;;;;5058897;28;20213;-80
2022/06/21 03:52:51;;;;;;;7.27;3.93;;;22.20;68.50;;;;;;5057603;28;20243;-79
2022/06/21 03:55:22;;;;;;;6.97;3.83;;;22.20;68.30;;;;;;5066915;28;20237;-79
2022/06/21 03:58:24;;;;;;;7.83;4.17;;;22.30;67.80;;;;;;5061313;28;20622;-79
2022/06/21 04:01:06;;;;;;;7.07;3.77;;;22.40;67.30;;;;;;5066531;28;20263;-79
2022/06/21 04:03:46;;;;;;;12.17;3.87;;;22.40;66.70;;;;;;5047679;28;20225;-79
2022/06/21 04:06:29;;;;;;;6.43;3.60;;;22.50;66.60;;;;;;5058487;28;20235;-79
2022/06/21 04:09:42;;;;;;;6.40;3.13;;;22.50;66.90;;;;;;5062996;28;20632;-79
2022/06/21 04:12:39;;;;;;;3.50;3.20;;;22.50;66.50;;;;;;5044177;28;20205;-79
2022/06/21 04:15:23;;;;;;;10.10;4.27;;;22.60;67.30;;;;;;5063558;28;20239;-79
2022/06/21 04:17:58;;;;;;;9.77;4.03;;;22.60;67.80;;;;;;5073432;28;20194;-79
2022/06/21 04:20:50;;;;;;;6.47;3.37;;;22.60;68.50;;;;;;5041764;28;20225;-79
2022/06/21 04:23:36;;;;;;;7.30;3.57;;;22.60;68.80;;;;;;5056713;28;20234;-79
2022/06/21 04:26:23;;;;;;;6.37;3.47;;;22.70;69.00;;;;;;5057546;28;20189;-79
2022/06/21 04:28:59;;;;;;;4.70;3.43;;;22.70;69.10;;;;;;5071043;28;20205;-79
2022/06/21 04:31:43;;;;;;;8.00;3.60;;;22.70;68.90;;;;;;5054410;28;20255;-79
2022/06/21 04:34:19;;;;;;;8.57;3.40;;;22.80;68.20;;;;;;5065984;28;20677;-80
2022/06/21 04:36:58;;;;;;;8.67;3.90;;;22.90;67.90;;;;;;5055488;28;20867;-79
2022/06/21 04:39:32;;;;;;;5.50;3.63;;;22.90;68.20;;;;;;5075253;28;20193;-79
2022/06/21 04:42:30;;;;;;;4.30;3.53;;;23.00;68.50;;;;;;5058507;28;20665;-80
2022/06/21 04:45:31;;;;;;;7.67;4.37;;;23.10;68.20;;;;;;5050248;28;20344;-80
2022/06/21 04:48:40;;;;;;;13.40;4.83;;;23.20;67.80;;;;;;5058084;28;20207;-79
2022/06/21 04:51:21;;;;;;;11.73;4.80;;;23.30;67.60;;;;;;5023090;28;20236;-79
2022/06/21 04:54:00;;;;;;;8.37;4.97;;;23.40;67.70;;;;;;5052921;28;20300;-79
2022/06/21 04:56:59;;;;;;;11.67;6.03;;;23.50;67.30;;;;;;5063091;28;20505;-79
2022/06/21 04:59:38;;;;;;;11.27;5.83;;;23.60;66.80;;;;;;5055464;28;20206;-79
2022/06/21 05:02:13;;;;;;;14.10;5.97;;;23.70;66.60;;;;;;5071590;28;20270;-79
2022/06/21 05:04:42;;;;;;;12.97;5.77;;;23.90;66.40;;;;;;5041490;28;20215;-79
2022/06/21 05:07:18;;;;;;;10.37;5.57;;;24.00;66.60;;;;;;5072168;28;20635;-79
2022/06/21 05:09:47;;;;;;;11.43;4.53;;;24.10;66.50;;;;;;5058395;28;20292;-79
2022/06/21 05:12:27;;;;;;;14.07;5.53;;;24.20;65.80;;;;;;5035125;28;20226;-79
2022/06/21 05:15:23;;;;;;;12.93;5.97;;;24.30;65.50;;;;;;5034407;28;20263;-79
2022/06/21 05:17:57;;;;;;;10.40;5.17;;;24.50;65.20;;;;;;5063971;28;20213;-80
2022/06/21 05:20:31;;;;;;;9.93;4.33;;;24.70;65.20;;;;;;5073262;28;20205;-79
2022/06/21 05:23:01;;;;;;;8.17;4.83;;;24.80;64.70;;;;;;5054169;28;20263;-79
2022/06/21 05:25:37;;;;;;;11.90;4.33;;;25.00;64.00;;;;;;5064111;28;20195;-79
2022/06/21 05:28:11;;;;;;;10.47;4.30;;;25.20;64.10;;;;;;5061478;28;20229;-80
2022/06/21 05:30:47;;;;;;;13.47;4.47;;;25.30;63.70;;;;;;5048224;28;20267;-79
2022/06/21 05:33:39;;;;;;;10.33;5.27;;;25.40;63.00;;;;;;5053832;28;20211;-79
2022/06/21 05:36:11;;;;;;;8.27;5.90;;;25.50;62.50;;;;;;5038335;28;20215;-79
2022/06/21 05:39:02;;;;;;;14.20;7.10;;;25.60;61.80;;;;;;5059391;28;20212;-79
2022/06/21 05:41:37;;;;;;;14.37;8.50;;;25.80;61.20;;;;;;5053349;28;20314;-79
2022/06/21 05:44:41;;;;;;;11.10;7.47;;;25.90;60.50;;;;;;5051545;28;20260;-79
2022/06/21 05:47:13;;;;;;;20.33;8.60;;;26.10;60.60;;;;;;5052816;28;20210;-79
2022/06/21 05:49:41;;;;;;;15.50;7.77;;;26.20;60.10;;;;;;5074206;28;20198;-79
2022/06/21 05:52:24;;;;;;;15.50;8.47;;;26.30;60.30;;;;;;5038547;28;20549;-79
2022/06/21 05:55:00;;;;;;;15.10;7.30;;;26.50;61.10;;;;;;5057533;28;20269;-79
2022/06/21 05:57:48;;;;;;;10.60;7.30;;;26.60;59.80;;;;;;5053916;28;20267;-79
2022/06/21 06:00:24;;;;;;;10.63;6.70;;;26.80;59.70;;;;;;5054980;28;20300;-80
2022/06/21 06:03:07;;;;;;;10.00;6.10;;;26.90;59.20;;;;;;5054344;28;20217;-80
2022/06/21 06:05:35;;;;;;;11.57;5.73;;;27.00;58.40;;;;;;5037551;28;20738;-79
2022/06/21 06:08:11;;;;;;;9.50;5.40;;;27.20;57.90;;;;;;5067290;28;20219;-79
2022/06/21 06:10:43;;;;;;;10.30;5.37;;;27.30;57.90;;;;;;5072153;28;20204;-79
2022/06/21 06:13:26;;;;;;;10.53;5.37;;;27.50;58.40;;;;;;5073402;28;20230;-80
2022/06/21 06:15:58;;;;;;;5.77;4.57;;;27.60;57.30;;;;;;5072990;28;20716;-80
2022/06/21 06:18:47;;;;;;;6.93;4.60;;;27.80;57.20;;;;;;5056846;28;20218;-79
2022/06/21 06:21:41;;;;;;;6.73;3.97;;;27.90;56.60;;;;;;5044546;28;20221;-79
2022/06/21 06:24:22;;;;;;;8.17;3.87;;;28.10;56.00;;;;;;5066421;28;20211;-79
2022/06/21 06:26:55;;;;;;;7.13;4.27;;;28.20;55.40;;;;;;5038239;28;20209;-80
2022/06/21 06:29:25;;;;;;;7.73;4.10;;;28.40;55.30;;;;;;5069237;28;20206;-81
2022/06/21 06:32:02;;;;;;;9.87;4.63;;;28.50;55.60;;;;;;5074646;28;20204;-79
2022/06/21 06:34:37;;;;;;;6.80;3.60;;;28.70;55.20;;;;;;5052182;28;20216;-80
2022/06/21 06:37:11;;;;;;;13.43;3.30;;;28.80;55.00;;;;;;5057595;28;20593;-80
2022/06/21 06:39:38;;;;;;;11.97;3.57;;;29.00;54.50;;;;;;5056975;28;20292;-79
2022/06/21 06:42:12;;;;;;;8.20;3.20;;;29.20;52.80;;;;;;5077532;28;20226;-80
2022/06/21 06:44:47;;;;;;;5.27;3.17;;;29.30;51.80;;;;;;5077055;28;20244;-79
2022/06/21 06:47:25;;;;;;;5.77;3.17;;;29.50;51.60;;;;;;5047979;28;20213;-80
2022/06/21 06:49:53;;;;;;;7.20;2.97;;;29.60;51.20;;;;;;5066500;28;20673;-80
2022/06/21 06:52:26;;;;;;;8.87;3.40;;;29.80;50.60;;;;;;5060506;28;20201;-79
2022/06/21 06:55:14;;;;;;;6.77;3.00;;;29.90;49.90;;;;;;5069954;28;20202;-80
2022/06/21 06:57:50;;;;;;;6.87;2.80;;;30.10;49.50;;;;;;5064838;28;20198;-79
2022/06/21 07:00:43;;;;;;;14.80;3.73;;;30.20;49.10;;;;;;5045047;28;20198;-79
2022/06/21 07:03:24;;;;;;;4.67;3.43;;;30.30;49.30;;;;;;5060093;28;20563;-80
2022/06/21 07:05:59;;;;;;;8.70;2.80;;;30.50;48.80;;;;;;5058046;28;20220;-80
2022/06/21 07:08:58;;;;;;;8.37;3.13;;;30.60;48.70;;;;;;5066592;28;20594;-80
2022/06/21 07:11:45;;;;;;;6.70;3.40;;;30.70;48.90;;;;;;5063211;28;20260;-80
2022/06/21 07:14:18;;;;;;;6.67;2.93;;;30.90;48.90;;;;;;5077162;28;20652;-80
2022/06/21 07:16:49;;;;;;;5.63;3.37;;;31.00;49.40;;;;;;5045323;28;20287;-80
2022/06/21 07:19:17;;;;;;;12.63;3.90;;;31.20;48.90;;;;;;5057254;28;20198;-80
2022/06/21 07:21:44;;;;;;;6.73;2.97;;;31.40;49.10;;;;;;5075820;28;20271;-79
2022/06/21 07:24:17;;;;;;;7.47;3.10;;;31.50;48.60;;;;;;5060026;28;20202;-80
2022/06/21 07:27:03;;;;;;;7.47;3.77;;;31.70;47.10;;;;;;5059661;28;20296;-80
2022/06/21 07:29:59;;;;;;;9.17;3.30;;;31.80;46.70;;;;;;5059691;28;20271;-80
2022/06/21 07:32:42;;;;;;;9.00;3.10;;;32.00;47.00;;;;;;5057171;28;20220;-79
2022/06/21 07:35:18;;;;;;;8.00;3.47;;;32.10;46.10;;;;;;5046670;28;20616;-80
2022/06/21 07:37:54;;;;;;;9.80;3.40;;;32.20;46.50;;;;;;5055495;28;20291;-79
2022/06/21 07:40:40;;;;;;;9.13;3.60;;;32.30;45.80;;;;;;5067403;28;20228;-80
2022/06/21 07:43:14;;;;;;;3.60;3.10;;;32.40;45.70;;;;;;5059952;28;20198;-80
2022/06/21 07:45:52;;;;;;;5.43;2.80;;;32.60;45.40;;;;;;5059401;28;20310;-80
2022/06/21 07:48:25;;;;;;;6.67;3.00;;;32.70;45.20;;;;;;5048256;28;20206;-80
2022/06/21 07:51:02;;;;;;;4.90;3.40;;;32.80;44.50;;;;;;5041825;28;20213;-79
2022/06/21 07:53:52;;;;;;;9.40;3.73;;;33.00;44.60;;;;;;5072089;28;20267;-79
2022/06/21 07:56:34;;;;;;;3.90;3.10;;;33.10;45.00;;;;;;5042445;28;20608;-80
2022/06/21 07:59:21;;;;;;;4.93;3.17;;;33.30;44.50;;;;;;5057343;28;20209;-80
2022/06/21 08:07:44;;;;;;;5.90;3.37;;;33.40;43.30;;;;;;5057135;28;20198;-80
2022/06/21 08:10:20;;;;;;;5.60;3.20;;;33.40;42.90;;;;;;5054383;28;20206;-80
2022/06/21 08:12:48;;;;;;;6.60;3.10;;;33.50;43.20;;;;;;5042396;28;20216;-80
2022/06/21 08:15:17;;;;;;;9.23;3.10;;;33.50;42.80;;;;;;5058849;28;20198;-80
2022/06/21 08:17:51;;;;;;;5.07;3.13;;;33.70;42.90;;;;;;5059588;28;20275;-81
2022/06/21 08:20:25;;;;;;;3.90;3.07;;;33.70;42.90;;;;;;5057616;28;20257;-81
2022/06/21 08:23:12;;;;;;;8.13;3.27;;;33.90;42.30;;;;;;5065585;28;20775;-81
2022/06/21 08:25:48;;;;;;;5.30;3.20;;;33.80;40.80;;;;;;5073855;28;20229;-80
2022/06/21 08:28:40;;;;;;;4.43;3.00;;;33.70;42.30;;;;;;5058646;28;20205;-80
2022/06/21 08:31:38;;;;;;;6.83;3.10;;;33.70;42.70;;;;;;5045742;28;20227;-80
2022/06/21 08:34:25;;;;;;;6.47;3.40;;;33.70;42.60;;;;;;5054832;28;20241;-80
2022/06/21 08:36:56;;;;;;;4.53;2.93;;;33.70;43.30;;;;;;5055040;28;20221;-80
2022/06/21 08:39:47;;;;;;;7.57;3.37;;;33.90;43.00;;;;;;5054595;28;20214;-80
2022/06/21 08:43:08;;;;;;;8.13;3.87;;;34.00;42.40;;;;;;5074635;28;20703;-80
2022/06/21 08:46:07;;;;;;;4.90;2.90;;;34.10;42.30;;;;;;5043956;28;20332;-80
2022/06/21 08:48:59;;;;;;;4.37;3.20;;;34.30;42.20;;;;;;5040616;28;20198;-81
2022/06/21 08:51:26;;;;;;;9.30;3.60;;;34.40;42.00;;;;;;5069781;28;20201;-80
2022/06/21 08:53:53;;;;;;;4.33;2.97;;;34.60;42.00;;;;;;5055723;28;20200;-80
2022/06/21 08:56:28;;;;;;;6.60;3.80;;;34.70;41.90;;;;;;5075085;28;20194;-80
2022/06/21 08:59:08;;;;;;;4.77;3.07;;;34.60;40.60;;;;;;5050621;28;20212;-80
2022/06/21 09:01:49;;;;;;;6.90;3.37;;;34.60;41.20;;;;;;5045837;28;20849;-80
2022/06/21 09:04:41;;;;;;;4.10;3.13;;;34.60;41.50;;;;;;5064198;28;20198;-80
2022/06/21 09:07:08;;;;;;;5.60;3.10;;;34.80;41.60;;;;;;5057344;28;20211;-80
2022/06/21 09:09:45;;;;;;;6.50;3.73;;;34.80;42.10;;;;;;5058431;28;20204;-80
2022/06/21 09:12:18;;;;;;;5.70;3.83;;;34.90;41.50;;;;;;5061291;28;20208;-80
2022/06/21 09:14:56;;;;;;;6.20;4.13;;;35.10;41.10;;;;;;5057736;28;20201;-80
2022/06/21 09:17:31;;;;;;;4.87;3.47;;;35.20;41.60;;;;;;5057684;28;20530;-80
2022/06/21 09:20:10;;;;;;;5.40;3.60;;;35.30;41.20;;;;;;5057597;28;20669;-80
2022/06/21 09:22:53;;;;;;;5.87;3.23;;;35.40;41.50;;;;;;5048642;28;20244;-80
2022/06/21 09:25:48;;;;;;;7.10;3.63;;;35.60;41.20;;;;;;5057221;28;20652;-81
2022/06/21 09:28:24;;;;;;;5.67;3.63;;;35.70;40.30;;;;;;5071991;28;20216;-81
2022/06/21 09:30:54;;;;;;;6.07;3.73;;;35.80;40.00;;;;;;5050253;28;20216;-80
2022/06/21 09:33:24;;;;;;;5.33;3.30;;;35.90;39.30;;;;;;5068894;28;20190;-80
2022/06/21 09:36:04;;;;;;;8.37;3.37;;;36.00;38.90;;;;;;5037998;28;20202;-80
2022/06/21 09:38:48;;;;;;;7.60;3.33;;;36.00;39.00;;;;;;5058247;28;20236;-80
2022/06/21 09:41:28;;;;;;;7.43;3.37;;;36.00;38.40;;;;;;5074823;28;20637;-80
2022/06/21 09:44:10;;;;;;;13.20;3.70;;;36.00;39.10;;;;;;5063259;28;20344;-80
2022/06/21 09:46:55;;;;;;;4.87;3.57;;;36.10;39.10;;;;;;5046706;28;20198;-81
2022/06/21 09:49:58;;;;;;;6.63;3.57;;;36.20;39.40;;;;;;5070822;28;20206;-80
2022/06/21 09:52:43;;;;;;;5.50;3.47;;;36.30;38.60;;;;;;4987524;28;20204;-79
2022/06/21 09:55:28;;;;;;;6.03;3.77;;;36.30;39.50;;;;;;5060426;28;20221;-79
2022/06/21 09:58:14;;;;;;;7.70;3.83;;;36.30;39.00;;;;;;5072406;28;20216;-80
2022/06/21 10:01:02;;;;;;;7.87;3.23;;;36.20;38.70;;;;;;5041151;28;20213;-80
2022/06/21 10:03:42;;;;;;;5.90;3.57;;;36.20;39.00;;;;;;5046116;28;20209;-80
2022/06/21 10:06:15;;;;;;;5.63;3.40;;;36.30;39.50;;;;;;5055024;28;20202;-80
2022/06/21 10:09:07;;;;;;;11.10;3.57;;;36.40;39.10;;;;;;5050505;28;20198;-80
2022/06/21 10:12:06;;;;;;;5.53;3.30;;;36.60;39.00;;;;;;5075229;28;20723;-80
2022/06/21 10:15:13;;;;;;;4.45;3.00;;;36.70;38.70;;;;;;5061890;28;20204;-80
2022/06/21 10:17:44;;;;;;;9.00;3.45;;;36.80;37.30;;;;;;5059853;28;20489;-80
2022/06/21 10:20:30;;;;;;;4.28;2.92;;;36.80;37.40;;;;;;5063579;28;20230;-79
2022/06/21 10:23:13;;;;;;;7.15;3.38;;;36.90;37.10;;;;;;5069370;28;20222;-80
2022/06/21 10:26:01;;;;;;;4.45;3.00;;;36.90;36.40;;;;;;5056132;28;20207;-80
2022/06/21 10:28:53;;;;;;;6.03;3.50;;;36.90;37.30;;;;;;5059131;28;20201;-80
2022/06/21 10:31:48;;;;;;;6.05;3.58;;;37.00;38.10;;;;;;5049139;28;20206;-80
2022/06/21 10:34:23;;;;;;;24.05;5.72;;;37.10;37.60;;;;;;5065137;28;20206;-79
2022/06/21 10:37:09;;;;;;;6.47;3.10;;;37.20;36.70;;;;;;5078315;28;20890;-79
2022/06/21 10:40:00;;;;;;;4.15;3.20;;;37.30;36.30;;;;;;5059192;28;20206;-80
2022/06/21 10:42:48;;;;;;;5.50;2.50;;;37.40;36.00;;;;;;5067020;28;20231;-80
2022/06/21 10:45:49;;;;;;;9.25;3.40;;;37.50;35.80;;;;;;5066282;28;20261;-80
2022/06/21 10:48:31;;;;;;;7.85;3.20;;;37.60;36.60;;;;;;5068546;28;20212;-79
2022/06/21 10:51:35;;;;;;;7.43;2.63;;;37.60;36.20;;;;;;5071570;28;20198;-80
2022/06/21 10:54:20;;;;;;;6.28;3.45;;;37.60;36.80;;;;;;5057475;28;20238;-80
2022/06/21 10:57:15;;;;;;;4.07;3.03;;;37.60;35.70;;;;;;5062022;28;20232;-80
2022/06/21 11:03:17;;;;;;;3.38;3.05;;;37.50;35.60;;;;;;5060170;28;20229;-79
2022/06/21 11:06:14;;;;;;;6.53;3.10;;;37.50;35.50;;;;;;5074068;28;20533;-79
2022/06/21 11:08:48;;;;;;;5.30;3.25;;;37.60;35.80;;;;;;5053878;28;20205;-79
2022/06/21 11:11:28;;;;;;;4.78;3.47;;;37.70;36.20;;;;;;5068119;28;20200;-79
2022/06/21 11:14:14;;;;;;;9.45;3.35;;;37.80;36.30;;;;;;5073651;28;20673;-79
2022/06/21 11:17:24;;;;;;;8.90;3.75;;;37.90;35.70;;;;;;5054039;28;20194;-79
2022/06/21 11:20:31;;;;;;;4.10;3.10;;;38.00;35.40;;;;;;5056374;28;20689;-80
2022/06/21 11:23:16;;;;;;;9.57;3.85;;;38.10;35.20;;;;;;5034355;28;20215;-79
2022/06/21 11:25:45;;;;;;;8.02;3.50;;;38.10;34.60;;;;;;5075512;28;20233;-79
2022/06/21 11:28:34;;;;;;;10.82;3.30;;;38.00;34.50;;;;;;5059558;28;20252;-80
2022/06/21 11:31:28;;;;;;;9.15;3.88;;;38.10;34.50;;;;;;5042553;28;20222;-80
2022/06/21 11:34:17;;;;;;;15.73;3.20;;;38.20;34.50;;;;;;5063820;28;20229;-79
2022/06/21 11:37:15;;;;;;;4.85;3.22;;;38.30;34.80;;;;;;5059313;28;20821;-79
2022/06/21 11:40:18;;;;;;;6.85;2.90;;;38.30;34.50;;;;;;5049883;28;20224;-80
2022/06/21 11:42:53;;;;;;;8.57;3.45;;;38.40;34.20;;;;;;5049890;28;20228;-79
2022/06/21 11:45:30;;;;;;;5.15;3.35;;;38.50;34.20;;;;;;5072758;28;20291;-79
2022/06/21 11:48:21;;;;;;;8.93;4.15;;;38.50;33.80;;;;;;5053157;28;20213;-81
2022/06/21 11:51:11;;;;;;;5.28;2.88;;;38.50;34.70;;;;;;5059943;28;20264;-79
2022/06/21 11:53:56;;;;;;;5.50;3.88;;;38.50;34.00;;;;;;5035894;28;20226;-79
2022/06/21 11:56:41;;;;;;;10.25;3.38;;;38.50;34.90;;;;;;5029240;28;20206;-79
2022/06/21 11:59:40;;;;;;;4.13;2.92;;;38.50;33.30;;;;;;5070423;28;20193;-80
2022/06/21 12:02:25;;;;;;;6.78;3.45;;;38.50;33.80;;;;;;5076863;28;20550;-80
2022/06/21 12:05:20;;;;;;;6.15;3.72;;;38.50;34.30;;;;;;5059445;28;20194;-80
2022/06/21 12:08:01;;;;;;;7.45;3.70;;;38.50;34.70;;;;;;5055945;28;20528;-80
2022/06/21 12:10:43;;;;;;;8.88;3.65;;;38.50;34.10;;;;;;5055304;28;20227;-80
2022/06/21 12:13:35;;;;;;;9.85;3.92;;;38.50;34.80;;;;;;5069713;28;20232;-79
2022/06/21 12:16:17;;;;;;;9.88;2.95;;;38.60;34.30;;;;;;5074260;28;20229;-79
2022/06/21 12:18:52;;;;;;;12.23;3.25;;;38.60;34.00;;;;;;5069105;28;20589;-79
2022/06/21 12:21:31;;;;;;;5.18;3.00;;;38.60;33.40;;;;;;5045704;28;20217;-80
2022/06/21 12:24:04;;;;;;;5.32;3.25;;;38.60;34.20;;;;;;5071275;28;20229;-79
2022/06/21 12:26:34;;;;;;;6.82;3.40;;;38.60;33.90;;;;;;5057980;28;20214;-79
2022/06/21 12:29:09;;;;;;;6.57;3.05;;;38.60;33.60;;;;;;5058504;28;20293;-79
2022/06/21 12:31:41;;;;;;;7.72;3.00;;;38.70;33.80;;;;;;5069247;28;20193;-79
2022/06/21 12:34:15;;;;;;;6.15;3.15;;;38.70;33.50;;;;;;5048749;28;20202;-83
2022/06/21 12:36:44;;;;;;;6.97;3.42;;;38.80;33.30;;;;;;5069320;28;20276;-79
2022/06/21 12:39:46;;;;;;;5.90;3.30;;;38.80;33.10;;;;;;5067080;28;20213;-79
2022/06/21 12:42:31;;;;;;;10.70;3.80;;;38.80;32.80;;;;;;5016378;28;20673;-79
2022/06/21 12:45:37;;;;;;;8.07;3.30;;;38.80;33.10;;;;;;5059380;28;20386;-79
2022/06/21 12:48:10;;;;;;;5.20;3.55;;;38.70;32.70;;;;;;5017821;28;20555;-80
2022/06/21 12:50:46;;;;;;;9.00;3.10;;;38.60;32.70;;;;;;5048007;28;20200;-78
2022/06/21 12:53:22;;;;;;;6.15;3.03;;;38.60;32.90;;;;;;5067896;28;20630;-79
2022/06/21 12:55:58;;;;;;;8.13;3.42;;;38.70;32.90;;;;;;5042425;28;20224;-79
2022/06/21 12:58:52;;;;;;;7.13;3.22;;;38.70;32.20;;;;;;5063103;28;20212;-78
2022/06/21 13:01:29;;;;;;;11.07;3.53;;;38.60;32.30;;;;;;4997760;28;20214;-80
2022/06/21 13:04:19;;;;;;;6.63;3.00;;;38.60;32.60;;;;;;5057647;28;20292;-79
2022/06/21 13:07:29;;;;;;;7.55;3.70;;;38.60;32.90;;;;;;5054323;28;20266;-79
2022/06/21 13:10:17;;;;;;;12.48;3.50;;;38.60;32.60;;;;;;5064407;28;20190;-79
2022/06/21 13:13:03;;;;;;;7.70;3.45;;;38.50;32.80;;;;;;5059087;28;20271;-79
2022/06/21 13:15:54;;;;;;;5.80;3.30;;;38.50;33.10;;;;;;5066786;28;20906;-79
2022/06/21 13:18:41;;;;;;;5.65;2.80;;;38.50;33.40;;;;;;5023682;28;20218;-80
2022/06/21 13:21:15;;;;;;;7.60;3.22;;;38.50;32.70;;;;;;5068326;28;20198;-78
2022/06/21 13:23:52;;;;;;;7.35;2.83;;;38.50;33.30;;;;;;5054071;28;20646;-78
2022/06/21 13:26:24;;;;;;;5.85;3.33;;;38.50;33.30;;;;;;5075210;28;20284;-79
2022/06/21 13:29:20;;;;;;;10.68;3.72;;;38.50;33.00;;;;;;5070770;28;20277;-79
2022/06/21 13:31:53;;;;;;;6.70;3.17;;;38.50;33.10;;;;;;5047741;28;20194;-79
2022/06/21 13:34:27;;;;;;;6.47;2.95;;;38.40;33.90;;;;;;5047053;28;20205;-80
2022/06/21 13:36:59;;;;;;;11.90;4.03;;;38.40;34.10;;;;;;5053977;28;20296;-79
2022/06/21 13:39:50;;;;;;;7.40;3.03;;;38.40;33.90;;;;;;5075170;28;20217;-79
2022/06/21 13:42:39;;;;;;;5.80;3.40;;;38.40;34.30;;;;;;5057845;28;20225;-79
2022/06/21 13:45:10;;;;;;;7.25;3.28;;;38.30;35.00;;;;;;5074823;28;20242;-79
2022/06/21 13:47:53;;;;;;;6.63;3.35;;;38.40;34.60;;;;;;5060765;28;20598;-79
2022/06/21 13:50:44;;;;;;;6.05;3.67;;;38.30;33.70;;;;;;5044473;28;20217;-78
2022/06/21 13:53:33;;;;;;;11.52;4.05;;;38.30;34.40;;;;;;5058021;28;20288;-79
2022/06/21 13:56:26;;;;;;;8.13;3.10;;;38.20;36.00;;;;;;5031191;28;20190;-79
2022/06/21 13:59:06;;;;;;;6.30;3.53;;;38.20;36.50;;;;;;5059999;28;20300;-79
2022/06/21 14:01:47;;;;;;;8.38;3.55;;;38.10;36.20;;;;;;5076370;28;20544;-79
2022/06/21 14:04:47;;;;;;;7.15;3.10;;;38.10;35.80;;;;;;5069987;28;20251;-79
2022/06/21 14:07:44;;;;;;;10.05;2.90;;;38.10;35.30;;;;;;5058959;28;20255;-79